CPX246 Details

Departure: Benito Juárez International Airport (MMMX)
Arrival: Los Angeles International Airport (KLAX) at N/A
Route: PPE J93 ASUTA AMMOR OLAAA1
Notes:


Current Weather Information
MMMX 230645Z 01004KT 12SM SCT020 BKN080 16/10 A3035 NOSIG RMK 8/570 OCNL DROPS
KLAX 230653Z 07003KT 10SM CLR 22/09 A2995 RMK AO2 SLP136 T02170089